Time;durP1;ratioP1;P1;durP2;ratioP2;P2;SDS_P1;SDS_P2;PMS_P1;PMS_P2;Temp;Humidity;BMP_temperature;BMP_pressure;BME280_temperature;BME280_humidity;BME280_pressure;Samples;Min_cycle;Max_cycle;Signal;HPM_P1;HPM_P2
2021/05/16 00:00:28;;;;;;;0.32;0.10;;;8.90;99.90;;;;;;5013305;28;20077;-85
2021/05/16 00:02:56;;;;;;;0.68;0.10;;;8.90;99.90;;;;;;4996396;28;20121;-83
2021/05/16 00:05:25;;;;;;;0.57;0.10;;;8.90;99.90;;;;;;4994478;28;20037;-84
2021/05/16 00:07:51;;;;;;;0.82;0.28;;;8.90;99.90;;;;;;4994818;28;20076;-83
2021/05/16 00:10:20;;;;;;;1.15;0.20;;;8.90;99.90;;;;;;5013601;28;20038;-83
2021/05/16 00:12:46;;;;;;;1.70;0.32;;;8.90;99.90;;;;;;5042176;28;20021;-81
2021/05/16 00:15:15;;;;;;;2.97;0.40;;;8.90;99.90;;;;;;5009984;28;20042;-85
2021/05/16 00:17:42;;;;;;;1.30;0.40;;;8.90;99.90;;;;;;5027900;22;20157;-85
2021/05/16 00:20:11;;;;;;;2.40;0.30;;;9.30;99.90;;;;;;4987352;28;20164;-85
2021/05/16 00:22:37;;;;;;;2.85;0.85;;;8.90;99.90;;;;;;4991568;28;20014;-85
2021/05/16 00:25:07;;;;;;;0.90;0.28;;;8.90;99.90;;;;;;4975694;28;20084;-85
2021/05/16 00:27:33;;;;;;;0.40;0.15;;;8.90;99.90;;;;;;4983668;28;20026;-85
2021/05/16 00:30:02;;;;;;;0.85;0.17;;;8.90;99.90;;;;;;4993132;28;20124;-86
2021/05/16 00:32:27;;;;;;;1.40;0.43;;;8.90;99.90;;;;;;4991058;28;20084;-86
2021/05/16 00:34:53;;;;;;;1.27;0.43;;;8.90;99.90;;;;;;4991556;28;20429;-85
2021/05/16 00:37:18;;;;;;;2.85;0.30;;;8.90;99.90;;;;;;4991445;28;20030;-85
2021/05/16 00:39:44;;;;;;;3.97;0.47;;;9.70;99.90;;;;;;4975177;28;20032;-85
2021/05/16 00:42:10;;;;;;;1.65;0.30;;;9.00;99.90;;;;;;4974346;28;20042;-85
2021/05/16 00:44:38;;;;;;;1.13;0.30;;;9.00;99.90;;;;;;4991286;28;20143;-85
2021/05/16 00:47:04;;;;;;;2.97;0.20;;;9.10;99.90;;;;;;4992526;28;20019;-86
2021/05/16 00:49:29;;;;;;;1.60;0.20;;;9.10;99.90;;;;;;4974716;28;20399;-85
2021/05/16 00:51:55;;;;;;;2.40;0.50;;;9.20;99.90;;;;;;4974616;28;20080;-85
2021/05/16 00:54:20;;;;;;;0.60;0.20;;;9.10;99.90;;;;;;4974618;28;20046;-85
2021/05/16 00:56:46;;;;;;;2.05;0.30;;;9.10;99.90;;;;;;4992389;28;20567;-85
2021/05/16 00:59:11;;;;;;;0.55;0.20;;;9.10;99.90;;;;;;4991870;28;20034;-85
2021/05/16 01:01:37;;;;;;;3.60;0.50;;;9.10;99.90;;;;;;4991976;28;20029;-85
2021/05/16 01:04:03;;;;;;;1.02;0.20;;;9.10;99.90;;;;;;4974825;28;20100;-85
2021/05/16 01:06:29;;;;;;;2.78;0.35;;;9.10;99.90;;;;;;4993144;28;20037;-85
2021/05/16 01:08:57;;;;;;;1.40;0.30;;;9.10;99.90;;;;;;4974467;28;20030;-85
2021/05/16 01:11:28;;;;;;;1.67;0.60;;;9.40;99.90;;;;;;4979477;28;20034;-85
2021/05/16 01:13:54;;;;;;;1.70;0.45;;;9.00;99.90;;;;;;4990915;28;20034;-85
2021/05/16 01:16:19;;;;;;;3.47;0.20;;;9.10;99.90;;;;;;4975425;28;20057;-85
2021/05/16 01:18:45;;;;;;;1.70;0.45;;;9.10;99.90;;;;;;4992053;28;20562;-85
2021/05/16 01:21:16;;;;;;;4.18;0.30;;;9.10;99.90;;;;;;4992329;28;20081;-85
2021/05/16 01:23:47;;;;;;;1.98;0.30;;;9.10;99.90;;;;;;4974937;28;20026;-85
2021/05/16 01:26:13;;;;;;;2.60;0.77;;;9.00;99.90;;;;;;4992490;28;20027;-85
2021/05/16 01:28:42;;;;;;;2.25;0.35;;;9.00;99.90;;;;;;4991408;28;20061;-85
2021/05/16 01:31:07;;;;;;;2.13;0.40;;;9.10;99.90;;;;;;4975082;28;20404;-85
2021/05/16 01:33:33;;;;;;;1.50;0.75;;;9.10;99.90;;;;;;4974797;28;20036;-86
2021/05/16 01:35:59;;;;;;;2.28;0.43;;;9.00;99.90;;;;;;4991407;28;20089;-86
2021/05/16 01:38:24;;;;;;;1.60;0.30;;;9.00;99.90;;;;;;4991245;28;20126;-86
2021/05/16 01:40:50;;;;;;;1.33;0.28;;;9.10;99.90;;;;;;4992350;28;20060;-85
2021/05/16 01:43:16;;;;;;;3.85;0.50;;;9.10;99.90;;;;;;4990334;28;20038;-85
2021/05/16 01:45:42;;;;;;;1.70;0.30;;;9.10;99.90;;;;;;4974624;28;20096;-85
2021/05/16 01:48:08;;;;;;;2.92;0.40;;;9.10;99.90;;;;;;4974332;28;20495;-85
2021/05/16 01:50:36;;;;;;;4.03;0.52;;;9.10;99.90;;;;;;4974795;28;20081;-85
2021/05/16 01:53:05;;;;;;;2.72;0.40;;;9.10;99.90;;;;;;4992016;28;20034;-86
2021/05/16 01:55:31;;;;;;;0.88;0.30;;;9.00;99.90;;;;;;4994052;28;20030;-85
2021/05/16 01:58:00;;;;;;;3.20;0.40;;;9.00;99.90;;;;;;4994632;28;20125;-85
2021/05/16 02:00:38;;;;;;;2.90;0.30;;;8.90;99.90;;;;;;4994506;28;20034;-85
2021/05/16 02:03:07;;;;;;;2.47;0.50;;;9.00;99.90;;;;;;4994068;28;20069;-85
2021/05/16 02:05:33;;;;;;;2.33;0.38;;;8.80;99.90;;;;;;4978807;28;20034;-85
2021/05/16 02:07:59;;;;;;;2.00;0.60;;;9.30;99.90;;;;;;4964280;28;20089;-85
2021/05/16 02:10:26;;;;;;;3.13;0.38;;;9.00;99.90;;;;;;4976006;28;20081;-85
2021/05/16 02:12:51;;;;;;;3.00;0.88;;;8.70;99.90;;;;;;4974878;28;20027;-85
2021/05/16 02:15:21;;;;;;;2.10;0.30;;;9.20;99.90;;;;;;4975734;28;20475;-85
2021/05/16 02:17:53;;;;;;;2.78;0.50;;;9.10;99.90;;;;;;4993924;28;20034;-86
2021/05/16 02:20:19;;;;;;;3.15;0.50;;;8.90;99.90;;;;;;4958686;28;20062;-85
2021/05/16 02:22:45;;;;;;;0.65;0.30;;;9.10;99.90;;;;;;4974061;28;20068;-85
2021/05/16 02:25:11;;;;;;;2.55;0.40;;;8.80;99.90;;;;;;4981759;28;20059;-86
2021/05/16 02:27:37;;;;;;;1.60;0.45;;;8.80;99.90;;;;;;4975011;28;20022;-85
2021/05/16 02:30:05;;;;;;;0.73;0.32;;;8.80;99.90;;;;;;4976189;28;20085;-86
2021/05/16 02:32:31;;;;;;;1.70;0.50;;;8.80;99.90;;;;;;4974496;28;20031;-85
2021/05/16 02:34:56;;;;;;;1.17;0.40;;;8.70;99.90;;;;;;4977925;28;20088;-86
2021/05/16 02:37:22;;;;;;;4.20;0.70;;;8.70;99.90;;;;;;4995225;28;20387;-86
2021/05/16 02:39:48;;;;;;;2.15;0.45;;;8.70;99.90;;;;;;4995026;28;20121;-86
2021/05/16 02:42:13;;;;;;;2.45;0.80;;;8.70;99.90;;;;;;4976928;28;20067;-86
2021/05/16 02:44:39;;;;;;;2.53;0.50;;;8.70;99.90;;;;;;4994042;28;20034;-86
2021/05/16 02:47:05;;;;;;;1.55;0.80;;;8.70;99.90;;;;;;4976997;28;20032;-86
2021/05/16 02:49:30;;;;;;;2.75;0.50;;;8.70;99.90;;;;;;4976717;28;20150;-86
2021/05/16 02:51:57;;;;;;;1.10;0.35;;;8.90;99.90;;;;;;4993316;28;20034;-86
2021/05/16 02:54:23;;;;;;;1.98;0.50;;;8.80;99.90;;;;;;4993720;28;20033;-85
2021/05/16 02:56:49;;;;;;;0.63;0.30;;;8.80;99.90;;;;;;4993617;28;20106;-85
2021/05/16 02:59:14;;;;;;;1.60;0.40;;;8.80;99.90;;;;;;4992959;28;20026;-85
2021/05/16 03:01:41;;;;;;;0.60;0.30;;;9.20;99.90;;;;;;4994578;28;20026;-86
2021/05/16 03:04:06;;;;;;;3.45;0.60;;;9.00;99.90;;;;;;4992640;28;20491;-86
2021/05/16 03:06:32;;;;;;;2.95;0.52;;;9.20;99.90;;;;;;4989110;28;20109;-86
2021/05/16 03:08:58;;;;;;;3.22;0.70;;;8.90;99.90;;;;;;4976884;28;20022;-86
2021/05/16 03:11:24;;;;;;;2.90;0.63;;;8.50;99.90;;;;;;4977413;28;20018;-86
2021/05/16 03:13:50;;;;;;;2.65;0.60;;;8.90;99.90;;;;;;4976597;28;20065;-86
2021/05/16 03:16:15;;;;;;;2.40;0.50;;;9.00;99.90;;;;;;4977101;28;20026;-86
2021/05/16 03:18:44;;;;;;;3.05;0.60;;;9.00;99.90;;;;;;4976869;28;20096;-86
2021/05/16 03:21:09;;;;;;;1.83;0.68;;;8.90;99.90;;;;;;4976761;28;20518;-86
2021/05/16 03:23:35;;;;;;;1.98;0.50;;;9.00;99.90;;;;;;4989043;28;20054;-86
2021/05/16 03:26:01;;;;;;;3.53;0.75;;;8.90;99.90;;;;;;4975046;28;20468;-86
2021/05/16 03:28:40;;;;;;;1.83;0.60;;;9.00;99.90;;;;;;4976512;28;20053;-86
2021/05/16 03:31:16;;;;;;;2.15;0.60;;;9.00;99.90;;;;;;4992656;28;20389;-86
2021/05/16 03:33:42;;;;;;;1.80;0.47;;;9.20;99.90;;;;;;4986299;28;20031;-86
2021/05/16 03:36:11;;;;;;;2.28;0.40;;;9.10;99.90;;;;;;4976139;28;20113;-86
2021/05/16 03:38:40;;;;;;;1.15;0.50;;;8.90;99.90;;;;;;4992151;28;20570;-86
2021/05/16 03:41:08;;;;;;;2.13;0.55;;;9.00;99.90;;;;;;4992458;28;20451;-86
2021/05/16 03:43:34;;;;;;;1.98;0.47;;;9.20;99.90;;;;;;4975273;28;20037;-86
2021/05/16 03:46:15;;;;;;;2.75;0.60;;;9.00;99.90;;;;;;4956881;28;20113;-86
2021/05/16 03:48:43;;;;;;;0.63;0.30;;;9.10;99.90;;;;;;4971964;28;20030;-86
2021/05/16 03:51:25;;;;;;;;;;;;;;;;;;;;;
2021/05/16 03:54:29;;;;;;;2.17;0.40;;;9.00;99.90;;;;;;4994326;28;20034;-86
2021/05/16 03:57:03;;;;;;;1.23;0.45;;;9.10;99.90;;;;;;4976455;28;20041;-86
2021/05/16 03:59:31;;;;;;;0.77;0.28;;;9.10;99.90;;;;;;4960196;28;20043;-86
2021/05/16 04:02:51;;;;;;;4.72;0.52;;;9.10;99.90;;;;;;4975799;28;20509;-86
2021/05/16 04:05:30;;;;;;;0.55;0.20;;;9.10;99.90;;;;;;4974165;28;20118;-86
2021/05/16 04:08:26;;;;;;;3.17;0.60;;;9.10;99.90;;;;;;4983489;28;20179;-86
2021/05/16 04:18:18;;;;;;;1.05;0.28;;;9.10;99.90;;;;;;4917608;23;20092;-85
2021/05/16 04:21:03;;;;;;;;;;;;;;;;;;;;;
2021/05/16 04:23:47;;;;;;;1.90;0.40;;;9.10;99.90;;;;;;5008433;28;20109;-86
2021/05/16 04:26:13;;;;;;;1.80;0.30;;;9.20;99.90;;;;;;4979325;28;20026;-86
2021/05/16 04:28:38;;;;;;;1.45;0.43;;;9.30;99.90;;;;;;4970014;28;20106;-86
2021/05/16 04:31:04;;;;;;;3.17;0.40;;;9.10;99.90;;;;;;4967205;28;20541;-86
2021/05/16 04:33:30;;;;;;;0.50;0.20;;;9.10;99.90;;;;;;4992889;28;20505;-86
2021/05/16 04:35:56;;;;;;;3.65;0.60;;;9.10;99.90;;;;;;4976026;28;20030;-86
2021/05/16 04:38:22;;;;;;;0.82;0.30;;;9.10;99.90;;;;;;4971645;28;20092;-86
2021/05/16 04:40:48;;;;;;;1.45;0.32;;;9.30;99.90;;;;;;4964368;28;20125;-85
2021/05/16 04:43:14;;;;;;;1.45;0.28;;;9.00;99.90;;;;;;4983426;28;20022;-86
2021/05/16 04:45:40;;;;;;;1.38;0.28;;;9.00;99.90;;;;;;4962013;28;20123;-86
2021/05/16 04:48:07;;;;;;;1.40;0.20;;;9.10;99.90;;;;;;4991147;28;20038;-86
2021/05/16 04:50:33;;;;;;;1.17;0.20;;;9.10;99.90;;;;;;4976876;28;20030;-86
2021/05/16 04:53:06;;;;;;;1.20;0.22;;;9.10;99.90;;;;;;4992336;28;20030;-86
2021/05/16 04:55:40;;;;;;;0.80;0.30;;;9.10;99.90;;;;;;4974153;28;20404;-86
2021/05/16 04:58:23;;;;;;;0.40;0.20;;;9.20;99.90;;;;;;4956940;28;20031;-86
2021/05/16 05:00:50;;;;;;;2.05;0.40;;;9.20;99.90;;;;;;4966062;28;20129;-86
2021/05/16 05:03:16;;;;;;;1.38;0.30;;;9.20;99.90;;;;;;4975504;28;20721;-86
2021/05/16 05:06:21;;;;;;;1.67;0.20;;;9.20;99.90;;;;;;4985865;28;20034;-85
2021/05/16 05:08:50;;;;;;;2.58;0.25;;;9.20;99.90;;;;;;4994832;28;20034;-86
2021/05/16 05:11:18;;;;;;;0.80;0.20;;;9.10;99.90;;;;;;4981393;28;20030;-86
2021/05/16 05:13:44;;;;;;;0.65;0.20;;;9.10;99.90;;;;;;4975235;28;20030;-86
2021/05/16 05:16:10;;;;;;;0.85;0.30;;;9.20;99.90;;;;;;4976432;28;20027;-86
2021/05/16 05:18:35;;;;;;;0.88;0.17;;;9.50;99.90;;;;;;4976125;28;20039;-86
2021/05/16 05:21:01;;;;;;;2.95;0.52;;;9.60;99.90;;;;;;4991563;28;20475;-86
2021/05/16 05:23:27;;;;;;;2.45;0.30;;;9.50;99.90;;;;;;4983861;28;20037;-86
2021/05/16 05:25:56;;;;;;;1.00;0.20;;;9.50;99.90;;;;;;4975137;28;20033;-86
2021/05/16 05:28:22;;;;;;;0.30;0.13;;;9.40;99.90;;;;;;4975153;28;20030;-86
2021/05/16 05:30:48;;;;;;;0.28;0.10;;;9.50;99.90;;;;;;4978614;28;20078;-86
2021/05/16 05:33:13;;;;;;;1.05;0.20;;;9.70;99.90;;;;;;4995848;28;20507;-85
2021/05/16 05:35:39;;;;;;;2.78;0.25;;;9.40;99.90;;;;;;4978885;28;20037;-86
2021/05/16 05:38:05;;;;;;;0.73;0.30;;;9.50;99.90;;;;;;4978390;28;20036;-86
2021/05/16 05:40:30;;;;;;;0.98;0.20;;;9.40;99.90;;;;;;4978213;28;20066;-86
2021/05/16 05:42:56;;;;;;;0.95;0.20;;;9.40;99.90;;;;;;4977976;28;20096;-86
2021/05/16 05:45:22;;;;;;;0.63;0.20;;;9.40;99.90;;;;;;4996065;28;20344;-86
2021/05/16 05:47:47;;;;;;;0.85;0.20;;;9.50;99.90;;;;;;4978227;28;20666;-86
2021/05/16 05:50:13;;;;;;;0.38;0.22;;;9.50;99.90;;;;;;4995735;28;20041;-86
2021/05/16 05:52:39;;;;;;;0.25;0.20;;;9.50;99.90;;;;;;4978387;28;20061;-86
2021/05/16 05:55:05;;;;;;;2.95;0.20;;;9.40;99.90;;;;;;4996094;28;20030;-86
2021/05/16 05:57:31;;;;;;;0.43;0.20;;;9.50;99.90;;;;;;4974900;28;20034;-85
2021/05/16 05:59:56;;;;;;;0.80;0.20;;;9.60;99.90;;;;;;4975860;28;20433;-86
2021/05/16 06:02:22;;;;;;;0.80;0.20;;;9.60;99.90;;;;;;4976055;28;20077;-86
2021/05/16 06:04:47;;;;;;;0.93;0.20;;;9.60;99.90;;;;;;4979678;28;20511;-85
2021/05/16 06:07:13;;;;;;;1.20;0.20;;;9.70;99.90;;;;;;4991077;28;20021;-86
2021/05/16 06:09:39;;;;;;;0.30;0.10;;;9.70;99.90;;;;;;4998578;28;20029;-86
2021/05/16 06:12:06;;;;;;;1.08;0.22;;;9.90;99.90;;;;;;4998916;28;20068;-85
2021/05/16 06:14:36;;;;;;;1.88;0.20;;;9.80;99.90;;;;;;5009224;28;20026;-86
2021/05/16 06:17:04;;;;;;;0.68;0.25;;;10.00;99.90;;;;;;4968100;28;20034;-86
2021/05/16 06:19:30;;;;;;;1.50;0.32;;;9.80;99.90;;;;;;4963418;28;20038;-86
2021/05/16 06:21:55;;;;;;;0.30;0.10;;;9.80;99.90;;;;;;4969762;28;20022;-85
2021/05/16 06:24:21;;;;;;;1.50;0.20;;;10.10;99.90;;;;;;4958570;28;20503;-86
2021/05/16 06:26:47;;;;;;;1.45;0.10;;;9.80;99.90;;;;;;4958589;28;20396;-86
2021/05/16 06:29:14;;;;;;;1.13;0.20;;;10.40;99.90;;;;;;4958533;28;20113;-86
2021/05/16 06:31:41;;;;;;;1.63;0.17;;;10.10;99.90;;;;;;4958297;28;20038;-85
2021/05/16 06:34:07;;;;;;;1.27;0.40;;;10.40;99.90;;;;;;4975603;28;20118;-86
2021/05/16 06:36:32;;;;;;;2.30;0.30;;;10.40;99.90;;;;;;4964389;28;20121;-86
2021/05/16 06:39:01;;;;;;;0.32;0.10;;;10.80;99.90;;;;;;4976771;28;20471;-86
2021/05/16 06:41:28;;;;;;;0.93;0.10;;;10.60;99.90;;;;;;4969292;28;20139;-86
2021/05/16 06:43:54;;;;;;;0.77;0.20;;;10.60;99.90;;;;;;4965789;28;20038;-86
2021/05/16 06:46:20;;;;;;;2.03;0.22;;;11.00;99.90;;;;;;4973991;28;20058;-86
2021/05/16 06:48:46;;;;;;;2.58;0.20;;;10.70;99.90;;;;;;4969868;28;20031;-86
2021/05/16 06:51:17;;;;;;;2.05;0.20;;;11.00;99.90;;;;;;4969057;28;20030;-86
2021/05/16 06:54:20;;;;;;;;;;;;;;;;;;;;;
2021/05/16 07:04:05;;;;;;;1.85;0.75;;;11.70;99.90;;;;;;4928343;29;20569;-86
2021/05/16 07:10:12;;;;;;;1.15;0.35;;;11.90;99.90;;;;;;4917182;29;20131;-86
2021/05/16 07:13:05;;;;;;;1.23;0.28;;;12.40;99.90;;;;;;4975066;28;20026;-86
2021/05/16 07:19:32;;;;;;;0.47;0.03;;;11.80;99.90;;;;;;4960382;28;20039;-86
2021/05/16 07:21:57;;;;;;;1.85;0.20;;;11.70;99.90;;;;;;4958955;28;20074;-86
2021/05/16 07:24:23;;;;;;;1.65;0.30;;;12.20;99.90;;;;;;4990209;28;20023;-85
2021/05/16 07:26:49;;;;;;;1.48;0.17;;;12.20;99.90;;;;;;4990216;28;20026;-86
2021/05/16 07:29:18;;;;;;;0.40;0.10;;;11.80;99.90;;;;;;4968879;28;20057;-86
2021/05/16 07:31:51;;;;;;;3.03;0.20;;;11.80;99.90;;;;;;4972589;28;20022;-85
2021/05/16 07:34:36;;;;;;;1.52;0.28;;;11.80;99.90;;;;;;4969565;28;20488;-86
2021/05/16 07:37:01;;;;;;;1.20;0.20;;;12.00;99.90;;;;;;4963656;28;20037;-86
2021/05/16 07:39:27;;;;;;;4.15;0.40;;;11.80;99.90;;;;;;4985228;28;20030;-86
2021/05/16 07:41:53;;;;;;;0.65;0.20;;;12.10;99.90;;;;;;4967453;28;20037;-86
2021/05/16 07:44:19;;;;;;;0.52;0.20;;;12.30;99.90;;;;;;4973118;28;20629;-86
2021/05/16 07:46:45;;;;;;;1.40;0.20;;;12.10;99.90;;;;;;4968049;28;20049;-86
2021/05/16 07:49:12;;;;;;;1.35;0.20;;;12.10;99.90;;;;;;4970350;28;20038;-85
2021/05/16 07:51:38;;;;;;;0.70;0.20;;;12.10;99.90;;;;;;4963732;28;20023;-85
2021/05/16 07:54:42;;;;;;;2.92;0.30;;;12.10;99.90;;;;;;4964248;28;20488;-85
2021/05/16 07:57:08;;;;;;;1.20;0.20;;;12.20;99.90;;;;;;4986183;28;20042;-86
2021/05/16 07:59:45;;;;;;;1.13;0.25;;;12.90;99.90;;;;;;4967186;28;20475;-85
2021/05/16 08:02:41;;;;;;;1.70;0.10;;;13.00;99.90;;;;;;4968597;28;20026;-86
2021/05/16 08:05:57;;;;;;;;;;;;;;;;;;;;;
2021/05/16 08:26:34;;;;;;;1.73;0.30;;;13.00;99.90;;;;;;5028279;28;20041;-86
2021/05/16 08:29:01;;;;;;;1.85;0.50;;;13.00;99.90;;;;;;5004566;28;20092;-85
2021/05/16 08:31:27;;;;;;;1.55;0.28;;;12.80;99.90;;;;;;5021281;28;20034;-85
2021/05/16 08:33:53;;;;;;;1.17;0.30;;;12.40;99.90;;;;;;5027601;28;20152;-86
2021/05/16 08:36:19;;;;;;;1.88;0.30;;;12.40;99.90;;;;;;5024549;28;20083;-86
2021/05/16 08:38:45;;;;;;;2.13;0.70;;;12.80;99.90;;;;;;5022579;28;20505;-86
2021/05/16 08:41:12;;;;;;;2.40;0.40;;;13.00;99.90;;;;;;5014658;28;20402;-87
2021/05/16 08:43:40;;;;;;;2.72;0.20;;;13.20;99.90;;;;;;5029054;28;20508;-87
2021/05/16 08:46:17;;;;;;;2.08;0.47;;;13.50;99.90;;;;;;5011259;28;20471;-87
2021/05/16 08:48:45;;;;;;;3.88;0.30;;;13.70;99.90;;;;;;5008116;28;20041;-87
2021/05/16 08:51:58;;;;;;;2.50;0.43;;;13.90;99.90;;;;;;5003720;28;20120;-87
2021/05/16 08:54:26;;;;;;;3.60;0.50;;;13.90;99.90;;;;;;5003731;28;20045;-87
2021/05/16 08:56:56;;;;;;;3.65;0.20;;;14.20;99.90;;;;;;5017884;28;20033;-87
2021/05/16 08:59:24;;;;;;;2.30;0.32;;;14.10;99.90;;;;;;5024517;28;20037;-87
2021/05/16 09:02:00;;;;;;;1.95;0.30;;;14.10;99.90;;;;;;5013252;28;20057;-86
2021/05/16 09:04:33;;;;;;;3.33;0.82;;;14.10;99.90;;;;;;5011126;28;20025;-86
2021/05/16 09:07:00;;;;;;;2.55;0.47;;;14.50;99.90;;;;;;5034379;28;20056;-87
2021/05/16 09:09:41;;;;;;;5.28;0.55;;;14.20;99.90;;;;;;5034304;28;20517;-88
2021/05/16 09:12:12;;;;;;;2.58;0.40;;;14.30;99.90;;;;;;5021043;28;20108;-88
2021/05/16 09:14:56;;;;;;;1.95;0.40;;;14.40;99.90;;;;;;5022922;28;20057;-86
2021/05/16 09:17:30;;;;;;;1.80;0.40;;;14.50;99.90;;;;;;5027414;28;20021;-89
2021/05/16 09:20:14;;;;;;;1.77;0.30;;;14.60;99.90;;;;;;5028153;28;20478;-88
2021/05/16 09:22:45;;;;;;;2.00;0.40;;;14.60;99.90;;;;;;5011336;28;20044;-88
2021/05/16 09:25:18;;;;;;;3.47;0.40;;;14.60;99.90;;;;;;5024479;28;20033;-88
2021/05/16 09:28:12;;;;;;;4.85;0.52;;;14.30;99.90;;;;;;5011887;28;20018;-88
2021/05/16 09:30:41;;;;;;;1.65;0.30;;;14.10;99.90;;;;;;5033074;28;20056;-88
2021/05/16 09:33:11;;;;;;;3.63;0.75;;;14.40;99.90;;;;;;5013872;28;20058;-88
2021/05/16 09:35:43;;;;;;;1.73;0.20;;;14.50;99.90;;;;;;5015817;28;20036;-89
2021/05/16 09:38:21;;;;;;;2.42;0.40;;;14.50;99.90;;;;;;5029258;28;20490;-87
2021/05/16 09:40:53;;;;;;;3.53;0.50;;;14.80;99.90;;;;;;5030891;28;20033;-88
2021/05/16 09:43:28;;;;;;;2.03;0.40;;;14.90;99.90;;;;;;5009761;28;20036;-88
2021/05/16 09:46:08;;;;;;;0.93;0.20;;;15.00;99.90;;;;;;5015379;28;20030;-89
2021/05/16 09:48:49;;;;;;;3.17;0.30;;;15.00;99.90;;;;;;5015196;28;20031;-88
2021/05/16 09:51:18;;;;;;;3.25;0.50;;;15.00;99.90;;;;;;5013026;28;20026;-88
2021/05/16 09:54:01;;;;;;;2.20;0.30;;;15.40;99.90;;;;;;5025181;28;20490;-88
2021/05/16 09:56:36;;;;;;;3.15;0.47;;;15.60;99.90;;;;;;5017204;28;20056;-87
2021/05/16 09:59:07;;;;;;;2.08;0.40;;;15.70;99.90;;;;;;5015109;28;20025;-88
2021/05/16 10:01:34;;;;;;;3.00;0.47;;;15.80;99.90;;;;;;5026804;28;20017;-87
2021/05/16 10:04:02;;;;;;;2.78;0.25;;;15.80;98.40;;;;;;5030076;28;20390;-88
2021/05/16 10:06:29;;;;;;;2.05;0.28;;;15.90;98.10;;;;;;5027907;28;20017;-87
2021/05/16 10:08:55;;;;;;;2.95;0.40;;;15.70;96.50;;;;;;5009356;28;20085;-86
2021/05/16 10:11:24;;;;;;;2.20;0.43;;;15.80;97.30;;;;;;5008888;28;20132;-88
2021/05/16 10:14:03;;;;;;;2.65;0.50;;;15.70;96.90;;;;;;5024712;28;20018;-88
2021/05/16 10:16:40;;;;;;;2.78;0.50;;;15.80;97.20;;;;;;5005596;28;20028;-88
2021/05/16 10:19:07;;;;;;;1.63;0.40;;;15.90;96.80;;;;;;5011565;28;20033;-88
2021/05/16 10:21:48;;;;;;;1.98;0.25;;;15.90;95.10;;;;;;5030734;28;20025;-87
2021/05/16 10:24:16;;;;;;;1.87;0.50;;;16.20;94.80;;;;;;5013336;28;20018;-88
2021/05/16 10:26:42;;;;;;;2.67;0.50;;;16.20;94.40;;;;;;5009648;28;20277;-88
2021/05/16 10:29:13;;;;;;;2.90;0.30;;;16.20;93.50;;;;;;5009963;28;20022;-88
2021/05/16 10:31:40;;;;;;;3.92;0.52;;;16.60;93.90;;;;;;5007869;28;20032;-87
2021/05/16 10:34:25;;;;;;;2.72;0.38;;;17.10;93.40;;;;;;5008752;28;20037;-88
2021/05/16 10:36:54;;;;;;;3.25;0.32;;;17.70;91.90;;;;;;5030587;28;20043;-88
2021/05/16 10:39:41;;;;;;;2.30;0.28;;;17.80;90.70;;;;;;5011844;28;20044;-88
2021/05/16 10:42:10;;;;;;;1.35;0.40;;;17.20;91.80;;;;;;5008585;28;20038;-88
2021/05/16 10:44:40;;;;;;;2.53;0.60;;;16.80;91.90;;;;;;5019163;28;20094;-88
2021/05/16 10:47:07;;;;;;;2.40;0.22;;;16.80;91.40;;;;;;5024766;28;20541;-88
2021/05/16 10:49:33;;;;;;;2.85;0.40;;;16.60;91.60;;;;;;5021943;28;20113;-87
2021/05/16 10:52:28;;;;;;;1.20;0.30;;;16.50;92.10;;;;;;5022032;28;20442;-88
2021/05/16 10:54:54;;;;;;;1.02;0.40;;;16.00;90.70;;;;;;5021936;28;20036;-89
2021/05/16 10:57:24;;;;;;;2.65;0.40;;;15.70;91.80;;;;;;5017626;28;20022;-88
2021/05/16 10:59:50;;;;;;;1.52;0.38;;;15.80;92.80;;;;;;5010190;28;20060;-88
2021/05/16 11:03:01;;;;;;;2.35;0.38;;;15.80;92.20;;;;;;5032006;28;20186;-89
2021/05/16 11:08:33;;;;;;;3.60;0.45;;;16.50;90.90;;;;;;5034227;28;20025;-89
2021/05/16 11:11:00;;;;;;;1.25;0.20;;;17.10;91.10;;;;;;4996096;28;20121;-88
2021/05/16 11:13:33;;;;;;;3.38;0.30;;;17.50;85.80;;;;;;5015181;28;20047;-88
2021/05/16 11:16:07;;;;;;;2.17;0.20;;;18.10;84.10;;;;;;5014570;28;20026;-88
2021/05/16 11:18:34;;;;;;;2.55;0.30;;;18.60;82.80;;;;;;5016391;28;20053;-89
2021/05/16 11:21:04;;;;;;;3.78;0.30;;;19.00;84.90;;;;;;5017518;28;20044;-89
2021/05/16 11:23:31;;;;;;;2.38;0.35;;;19.40;82.80;;;;;;5017865;28;20530;-88
2021/05/16 11:26:00;;;;;;;2.42;0.73;;;19.50;82.40;;;;;;5011087;28;20029;-90
2021/05/16 11:28:28;;;;;;;1.83;0.30;;;19.70;81.00;;;;;;5011924;28;20053;-88
2021/05/16 11:30:58;;;;;;;2.35;0.45;;;19.30;78.50;;;;;;5009299;28;20079;-88
2021/05/16 11:33:24;;;;;;;2.65;0.57;;;19.00;75.30;;;;;;5008791;28;20733;-87
2021/05/16 11:35:50;;;;;;;1.70;0.65;;;18.10;75.90;;;;;;5028103;28;20442;-88
2021/05/16 11:38:28;;;;;;;2.35;0.30;;;18.50;78.60;;;;;;5020240;28;20025;-88
2021/05/16 11:40:55;;;;;;;3.80;0.45;;;17.90;78.10;;;;;;5005538;28;20026;-88
2021/05/16 11:43:32;;;;;;;1.33;0.30;;;17.60;79.40;;;;;;5020377;28;20443;-88
2021/05/16 11:45:59;;;;;;;1.15;0.17;;;17.40;77.80;;;;;;5029889;28;20527;-89
2021/05/16 11:48:36;;;;;;;2.20;0.40;;;17.30;78.80;;;;;;5013543;28;20044;-88
2021/05/16 11:51:17;;;;;;;1.65;0.30;;;17.30;77.70;;;;;;5023329;28;20195;-89
2021/05/16 11:53:48;;;;;;;2.70;0.25;;;17.30;77.90;;;;;;5009680;28;20177;-88
2021/05/16 11:56:16;;;;;;;1.75;0.38;;;17.50;80.90;;;;;;5007216;28;20030;-88
2021/05/16 11:58:52;;;;;;;2.22;0.32;;;18.10;82.20;;;;;;5021804;28;20040;-87
2021/05/16 12:01:20;;;;;;;1.70;0.30;;;18.30;80.40;;;;;;5017385;28;20041;-88
2021/05/16 12:04:00;;;;;;;1.67;0.32;;;18.60;78.70;;;;;;5018907;28;20022;-88
2021/05/16 12:06:30;;;;;;;4.25;0.40;;;19.00;79.10;;;;;;5023230;28;20028;-89
2021/05/16 12:09:00;;;;;;;1.40;0.30;;;18.60;77.50;;;;;;5013268;28;20163;-88
2021/05/16 12:11:26;;;;;;;3.65;0.30;;;18.30;77.30;;;;;;5010667;28;20098;-88
2021/05/16 12:14:05;;;;;;;1.27;0.38;;;18.40;78.90;;;;;;5029910;28;20037;-88
2021/05/16 12:16:31;;;;;;;2.80;0.30;;;18.20;77.20;;;;;;5013141;28;20026;-90
2021/05/16 12:18:58;;;;;;;2.75;0.40;;;18.40;75.20;;;;;;5022122;28;20056;-89
2021/05/16 12:21:27;;;;;;;1.63;0.22;;;18.40;74.80;;;;;;5003428;28;20044;-88
2021/05/16 12:23:59;;;;;;;3.33;0.55;;;18.50;76.80;;;;;;5008447;28;20125;-89
2021/05/16 12:26:25;;;;;;;2.38;0.30;;;18.40;73.50;;;;;;5007048;28;20163;-88
2021/05/16 12:28:52;;;;;;;1.77;0.38;;;18.20;75.00;;;;;;5034723;28;20033;-87
2021/05/16 12:31:18;;;;;;;2.30;0.30;;;17.90;75.40;;;;;;5023581;28;20025;-88
2021/05/16 12:33:47;;;;;;;2.05;0.35;;;17.80;76.70;;;;;;5016549;28;20021;-86
2021/05/16 12:36:13;;;;;;;3.60;0.40;;;17.70;78.10;;;;;;5021073;28;20057;-87
2021/05/16 12:38:50;;;;;;;3.30;0.30;;;17.70;76.70;;;;;;5017456;28;20025;-88
2021/05/16 12:41:26;;;;;;;1.77;0.30;;;17.70;78.90;;;;;;5019044;28;20029;-88
2021/05/16 12:44:11;;;;;;;3.60;0.85;;;17.60;77.70;;;;;;5014439;28;20447;-87
2021/05/16 12:46:42;;;;;;;1.30;0.22;;;17.30;80.10;;;;;;5026173;28;20025;-88
2021/05/16 12:49:10;;;;;;;2.50;0.38;;;17.10;81.30;;;;;;5025749;28;20049;-87
2021/05/16 12:51:37;;;;;;;1.63;0.40;;;17.20;82.50;;;;;;5032023;28;20390;-87
2021/05/16 12:54:16;;;;;;;0.85;0.20;;;17.30;78.50;;;;;;5023686;28;20506;-88
2021/05/16 12:56:45;;;;;;;1.02;0.20;;;17.30;79.20;;;;;;5026559;28;20030;-87
2021/05/16 12:59:24;;;;;;;1.92;0.40;;;17.40;79.10;;;;;;5023602;28;20030;-88
2021/05/16 13:01:52;;;;;;;1.05;0.20;;;17.20;78.80;;;;;;5029969;28;20021;-87
2021/05/16 13:04:19;;;;;;;0.75;0.20;;;17.20;77.80;;;;;;5020219;28;20038;-88
2021/05/16 13:06:54;;;;;;;1.35;0.25;;;17.10;79.30;;;;;;5025971;28;20048;-88
2021/05/16 13:09:27;;;;;;;3.35;0.30;;;16.90;79.50;;;;;;5023995;28;20013;-89
2021/05/16 13:11:58;;;;;;;2.03;0.30;;;16.80;79.70;;;;;;5031116;28;20022;-88
2021/05/16 13:14:35;;;;;;;1.48;0.30;;;16.80;78.10;;;;;;5013677;28;20453;-89
2021/05/16 13:17:08;;;;;;;2.22;0.25;;;16.70;79.30;;;;;;5018453;28;20041;-88
2021/05/16 13:19:39;;;;;;;1.35;0.30;;;16.80;78.00;;;;;;5020051;28;20368;-89
2021/05/16 13:22:37;;;;;;;1.63;0.30;;;16.90;77.70;;;;;;5011970;28;20097;-88
2021/05/16 13:25:11;;;;;;;1.92;0.30;;;16.90;77.40;;;;;;5012279;28;20088;-88
2021/05/16 13:27:39;;;;;;;0.47;0.20;;;16.70;76.30;;;;;;5028235;28;20108;-87
2021/05/16 13:30:10;;;;;;;4.50;0.22;;;16.60;76.70;;;;;;5019840;28;20024;-87
2021/05/16 13:32:36;;;;;;;1.60;0.37;;;16.60;76.50;;;;;;5008947;28;20505;-88
2021/05/16 13:35:02;;;;;;;2.80;0.32;;;16.90;76.80;;;;;;5015500;28;20260;-88
2021/05/16 13:37:28;;;;;;;1.00;0.20;;;16.60;75.70;;;;;;5027949;28;20091;-88
2021/05/16 13:39:54;;;;;;;3.20;0.35;;;16.60;76.50;;;;;;5030138;28;20484;-88
2021/05/16 13:42:20;;;;;;;0.60;0.15;;;16.80;77.80;;;;;;5029152;28;20026;-88
2021/05/16 13:44:47;;;;;;;2.25;0.45;;;17.00;77.10;;;;;;5022741;28;20036;-87
2021/05/16 13:47:13;;;;;;;1.20;0.20;;;17.80;78.90;;;;;;5030620;28;20025;-88
2021/05/16 13:49:38;;;;;;;1.67;0.30;;;18.10;73.30;;;;;;5014472;28;20126;-88
2021/05/16 13:52:04;;;;;;;1.05;0.20;;;17.80;75.60;;;;;;5013615;28;20411;-87
2021/05/16 13:54:32;;;;;;;1.75;0.43;;;17.50;76.40;;;;;;5015129;28;20052;-88